sensor_id;sensor_type;location;lat;lon;timestamp;temperature;humidity
15815;DHT22;8008;50.024;8.172;2023-04-23T03:01:43;12.60;99.90
15815;DHT22;8008;50.024;8.172;2023-04-23T03:04:13;12.60;99.90
15815;DHT22;8008;50.024;8.172;2023-04-23T03:06:41;12.50;99.90
15815;DHT22;8008;50.024;8.172;2023-04-23T03:09:10;12.50;99.90
15815;DHT22;8008;50.024;8.172;2023-04-23T03:11:38;12.50;99.90
15815;DHT22;8008;50.024;8.172;2023-04-23T03:14:11;12.50;99.90
15815;DHT22;8008;50.024;8.172;2023-04-23T03:16:39;12.50;99.90
15815;DHT22;8008;50.024;8.172;2023-04-23T03:19:09;12.50;99.90
15815;DHT22;8008;50.024;8.172;2023-04-23T03:21:38;12.40;99.90
15815;DHT22;8008;50.024;8.172;2023-04-23T03:24:07;12.50;99.90
15815;DHT22;8008;50.024;8.172;2023-04-23T03:26:35;12.50;99.90
15815;DHT22;8008;50.024;8.172;2023-04-23T03:29:03;12.40;99.90
15815;DHT22;8008;50.024;8.172;2023-04-23T03:31:32;12.40;99.90
15815;DHT22;8008;50.024;8.172;2023-04-23T03:34:01;12.40;99.90
15815;DHT22;8008;50.024;8.172;2023-04-23T03:36:33;12.40;99.90
15815;DHT22;8008;50.024;8.172;2023-04-23T03:39:02;12.40;99.90
15815;DHT22;8008;50.024;8.172;2023-04-23T03:41:42;12.40;99.90
15815;DHT22;8008;50.024;8.172;2023-04-23T03:44:12;12.40;99.90
15815;DHT22;8008;50.024;8.172;2023-04-23T03:46:43;12.40;99.90
15815;DHT22;8008;50.024;8.172;2023-04-23T03:49:13;12.40;99.90
15815;DHT22;8008;50.024;8.172;2023-04-23T03:51:44;12.40;99.90
15815;DHT22;8008;50.024;8.172;2023-04-23T03:54:12;12.50;99.90
15815;DHT22;8008;50.024;8.172;2023-04-23T03:57:00;12.50;99.90
15815;DHT22;8008;50.024;8.172;2023-04-23T03:59:32;12.50;99.90
15815;DHT22;8008;50.024;8.172;2023-04-23T04:02:01;12.40;99.90
15815;DHT22;8008;50.024;8.172;2023-04-23T04:04:30;12.40;99.90
15815;DHT22;8008;50.024;8.172;2023-04-23T04:07:00;12.40;99.90
15815;DHT22;8008;50.024;8.172;2023-04-23T04:09:28;12.40;99.90
15815;DHT22;8008;50.024;8.172;2023-04-23T04:12:00;12.30;99.90
15815;DHT22;8008;50.024;8.172;2023-04-23T04:14:28;12.30;99.90
15815;DHT22;8008;50.024;8.172;2023-04-23T04:16:56;12.30;99.90
15815;DHT22;8008;50.024;8.172;2023-04-23T04:19:24;12.20;99.90
15815;DHT22;8008;50.024;8.172;2023-04-23T04:21:52;12.20;99.90
15815;DHT22;8008;50.024;8.172;2023-04-23T04:24:21;12.20;99.90
15815;DHT22;8008;50.024;8.172;2023-04-23T04:26:52;12.20;99.90
15815;DHT22;8008;50.024;8.172;2023-04-23T04:29:20;12.20;99.90
15815;DHT22;8008;50.024;8.172;2023-04-23T04:31:49;12.20;99.90
15815;DHT22;8008;50.024;8.172;2023-04-23T04:34:17;12.10;99.90
15815;DHT22;8008;50.024;8.172;2023-04-23T04:36:45;12.10;99.90
15815;DHT22;8008;50.024;8.172;2023-04-23T04:39:14;12.10;99.90
15815;DHT22;8008;50.024;8.172;2023-04-23T04:41:44;12.10;99.90
15815;DHT22;8008;50.024;8.172;2023-04-23T04:44:12;12.10;99.90
15815;DHT22;8008;50.024;8.172;2023-04-23T04:46:42;12.10;99.90
15815;DHT22;8008;50.024;8.172;2023-04-23T04:49:11;12.00;99.90
15815;DHT22;8008;50.024;8.172;2023-04-23T04:51:39;12.00;99.90
15815;DHT22;8008;50.024;8.172;2023-04-23T04:54:07;12.00;99.90
15815;DHT22;8008;50.024;8.172;2023-04-23T04:56:35;12.00;99.90
15815;DHT22;8008;50.024;8.172;2023-04-23T04:59:04;12.00;99.90
15815;DHT22;8008;50.024;8.172;2023-04-23T05:01:32;11.90;99.90
15815;DHT22;8008;50.024;8.172;2023-04-23T05:04:03;11.90;99.90
15815;DHT22;8008;50.024;8.172;2023-04-23T05:06:31;11.90;99.90
15815;DHT22;8008;50.024;8.172;2023-04-23T05:08:59;11.90;99.90
15815;DHT22;8008;50.024;8.172;2023-04-23T05:11:27;11.80;99.90
15815;DHT22;8008;50.024;8.172;2023-04-23T05:13:55;11.80;99.90
15815;DHT22;8008;50.024;8.172;2023-04-23T05:16:25;11.80;99.90
15815;DHT22;8008;50.024;8.172;2023-04-23T05:18:53;11.80;99.90
15815;DHT22;8008;50.024;8.172;2023-04-23T05:21:21;11.70;99.90
15815;DHT22;8008;50.024;8.172;2023-04-23T05:23:49;11.70;99.90
15815;DHT22;8008;50.024;8.172;2023-04-23T05:26:17;11.80;99.90
15815;DHT22;8008;50.024;8.172;2023-04-23T05:28:45;11.80;99.90
15815;DHT22;8008;50.024;8.172;2023-04-23T05:31:12;11.80;99.90
15815;DHT22;8008;50.024;8.172;2023-04-23T05:33:42;11.80;99.90
15815;DHT22;8008;50.024;8.172;2023-04-23T05:36:16;11.80;99.90
15815;DHT22;8008;50.024;8.172;2023-04-23T05:38:44;11.80;99.90
15815;DHT22;8008;50.024;8.172;2023-04-23T05:41:12;11.90;99.90
15815;DHT22;8008;50.024;8.172;2023-04-23T05:43:40;11.90;99.90
15815;DHT22;8008;50.024;8.172;2023-04-23T05:46:08;11.90;99.90
15815;DHT22;8008;50.024;8.172;2023-04-23T05:48:36;12.00;99.90
15815;DHT22;8008;50.024;8.172;2023-04-23T05:51:05;11.90;99.90
15815;DHT22;8008;50.024;8.172;2023-04-23T05:53:33;12.00;99.90
15815;DHT22;8008;50.024;8.172;2023-04-23T05:56:02;12.10;99.90
15815;DHT22;8008;50.024;8.172;2023-04-23T05:58:30;12.00;99.90
15815;DHT22;8008;50.024;8.172;2023-04-23T06:00:58;12.10;99.90
15815;DHT22;8008;50.024;8.172;2023-04-23T06:03:25;12.10;99.90
15815;DHT22;8008;50.024;8.172;2023-04-23T06:05:54;12.10;99.90
15815;DHT22;8008;50.024;8.172;2023-04-23T06:08:23;12.20;99.90
15815;DHT22;8008;50.024;8.172;2023-04-23T06:10:51;12.30;99.90
15815;DHT22;8008;50.024;8.172;2023-04-23T06:13:21;12.30;99.90
15815;DHT22;8008;50.024;8.172;2023-04-23T06:15:49;12.30;99.90
15815;DHT22;8008;50.024;8.172;2023-04-23T06:18:17;12.40;99.90
15815;DHT22;8008;50.024;8.172;2023-04-23T06:20:45;12.40;99.90
15815;DHT22;8008;50.024;8.172;2023-04-23T06:23:14;12.60;99.90
15815;DHT22;8008;50.024;8.172;2023-04-23T06:25:43;12.70;99.90
15815;DHT22;8008;50.024;8.172;2023-04-23T06:28:11;12.80;99.90
15815;DHT22;8008;50.024;8.172;2023-04-23T06:30:58;12.80;99.90
15815;DHT22;8008;50.024;8.172;2023-04-23T06:33:28;12.90;99.90
15815;DHT22;8008;50.024;8.172;2023-04-23T06:35:56;12.90;99.90
15815;DHT22;8008;50.024;8.172;2023-04-23T06:38:24;12.90;99.90
15815;DHT22;8008;50.024;8.172;2023-04-23T06:40:53;13.00;99.90
15815;DHT22;8008;50.024;8.172;2023-04-23T06:43:21;13.00;99.90
15815;DHT22;8008;50.024;8.172;2023-04-23T06:46:12;13.10;99.90
15815;DHT22;8008;50.024;8.172;2023-04-23T06:48:40;13.30;99.90
15815;DHT22;8008;50.024;8.172;2023-04-23T06:51:08;13.40;99.90
15815;DHT22;8008;50.024;8.172;2023-04-23T06:53:36;13.50;99.90
15815;DHT22;8008;50.024;8.172;2023-04-23T06:56:06;13.60;99.90
15815;DHT22;8008;50.024;8.172;2023-04-23T06:58:34;13.70;99.90
15815;DHT22;8008;50.024;8.172;2023-04-23T07:01:12;13.90;99.90
15815;DHT22;8008;50.024;8.172;2023-04-23T07:03:40;14.00;99.90
15815;DHT22;8008;50.024;8.172;2023-04-23T07:06:11;13.90;99.90
15815;DHT22;8008;50.024;8.172;2023-04-23T07:08:38;14.00;99.90
15815;DHT22;8008;50.024;8.172;2023-04-23T07:11:08;14.10;99.90
15815;DHT22;8008;50.024;8.172;2023-04-23T07:13:36;14.10;99.90
15815;DHT22;8008;50.024;8.172;2023-04-23T07:16:04;14.20;99.90
15815;DHT22;8008;50.024;8.172;2023-04-23T07:18:32;14.10;99.90
15815;DHT22;8008;50.024;8.172;2023-04-23T07:21:00;14.00;99.90
15815;DHT22;8008;50.024;8.172;2023-04-23T07:23:28;13.70;99.90
15815;DHT22;8008;50.024;8.172;2023-04-23T07:25:56;13.60;99.90
15815;DHT22;8008;50.024;8.172;2023-04-23T07:28:26;13.70;99.90
15815;DHT22;8008;50.024;8.172;2023-04-23T07:30:54;13.70;99.90
15815;DHT22;8008;50.024;8.172;2023-04-23T07:33:22;13.80;99.90
15815;DHT22;8008;50.024;8.172;2023-04-23T07:35:50;14.00;99.90
15815;DHT22;8008;50.024;8.172;2023-04-23T07:38:18;14.10;99.90
15815;DHT22;8008;50.024;8.172;2023-04-23T07:40:46;14.10;99.90
15815;DHT22;8008;50.024;8.172;2023-04-23T07:43:14;14.10;99.90
15815;DHT22;8008;50.024;8.172;2023-04-23T07:45:43;14.20;99.90
15815;DHT22;8008;50.024;8.172;2023-04-23T07:48:11;14.30;99.90
15815;DHT22;8008;50.024;8.172;2023-04-23T07:50:40;14.40;99.90
15815;DHT22;8008;50.024;8.172;2023-04-23T07:53:08;14.40;99.90
15815;DHT22;8008;50.024;8.172;2023-04-23T07:55:36;14.50;99.90
15815;DHT22;8008;50.024;8.172;2023-04-23T07:58:04;14.60;99.90
15815;DHT22;8008;50.024;8.172;2023-04-23T08:00:32;14.60;99.90
15815;DHT22;8008;50.024;8.172;2023-04-23T08:03:01;14.70;99.90
15815;DHT22;8008;50.024;8.172;2023-04-23T08:05:29;14.60;99.90
15815;DHT22;8008;50.024;8.172;2023-04-23T08:07:57;14.70;99.90
15815;DHT22;8008;50.024;8.172;2023-04-23T08:10:25;14.70;99.90
15815;DHT22;8008;50.024;8.172;2023-04-23T08:12:53;14.60;99.90
15815;DHT22;8008;50.024;8.172;2023-04-23T08:15:21;14.70;99.90
15815;DHT22;8008;50.024;8.172;2023-04-23T08:17:49;14.70;99.90
15815;DHT22;8008;50.024;8.172;2023-04-23T08:20:18;14.80;99.90
15815;DHT22;8008;50.024;8.172;2023-04-23T08:22:46;15.00;99.90
15815;DHT22;8008;50.024;8.172;2023-04-23T08:25:15;15.00;99.90
15815;DHT22;8008;50.024;8.172;2023-04-23T08:27:43;15.10;99.90
15815;DHT22;8008;50.024;8.172;2023-04-23T08:30:12;15.20;99.90
15815;DHT22;8008;50.024;8.172;2023-04-23T08:32:40;15.20;99.90
15815;DHT22;8008;50.024;8.172;2023-04-23T08:35:08;15.20;99.90
15815;DHT22;8008;50.024;8.172;2023-04-23T08:37:37;15.30;99.90
15815;DHT22;8008;50.024;8.172;2023-04-23T08:40:07;15.40;99.90
15815;DHT22;8008;50.024;8.172;2023-04-23T08:42:38;15.40;99.90
15815;DHT22;8008;50.024;8.172;2023-04-23T08:45:09;15.40;99.90
15815;DHT22;8008;50.024;8.172;2023-04-23T08:47:38;15.40;99.90
15815;DHT22;8008;50.024;8.172;2023-04-23T08:50:10;15.40;99.90
15815;DHT22;8008;50.024;8.172;2023-04-23T08:52:43;15.30;99.90
15815;DHT22;8008;50.024;8.172;2023-04-23T08:55:13;15.20;99.90
15815;DHT22;8008;50.024;8.172;2023-04-23T08:57:41;15.30;99.90
15815;DHT22;8008;50.024;8.172;2023-04-23T09:00:11;15.20;99.90
15815;DHT22;8008;50.024;8.172;2023-04-23T09:02:41;15.20;99.90
15815;DHT22;8008;50.024;8.172;2023-04-23T09:05:09;15.30;99.90
15815;DHT22;8008;50.024;8.172;2023-04-23T09:07:38;15.20;99.90
15815;DHT22;8008;50.024;8.172;2023-04-23T09:10:09;15.20;99.90
15815;DHT22;8008;50.024;8.172;2023-04-23T09:12:40;15.30;99.90
15815;DHT22;8008;50.024;8.172;2023-04-23T09:15:09;15.40;99.90
15815;DHT22;8008;50.024;8.172;2023-04-23T09:17:42;15.60;99.90
15815;DHT22;8008;50.024;8.172;2023-04-23T09:20:12;15.60;99.90
15815;DHT22;8008;50.024;8.172;2023-04-23T09:22:42;15.70;99.90
15815;DHT22;8008;50.024;8.172;2023-04-23T09:25:16;15.90;99.90
15815;DHT22;8008;50.024;8.172;2023-04-23T09:27:44;16.00;99.90
15815;DHT22;8008;50.024;8.172;2023-04-23T09:30:13;16.00;99.90
15815;DHT22;8008;50.024;8.172;2023-04-23T09:32:44;16.10;99.90
15815;DHT22;8008;50.024;8.172;2023-04-23T09:35:14;16.10;99.90
15815;DHT22;8008;50.024;8.172;2023-04-23T09:37:42;16.20;99.90
15815;DHT22;8008;50.024;8.172;2023-04-23T09:40:18;16.30;99.90
15815;DHT22;8008;50.024;8.172;2023-04-23T09:42:47;16.30;99.90
15815;DHT22;8008;50.024;8.172;2023-04-23T09:45:16;16.30;99.90
15815;DHT22;8008;50.024;8.172;2023-04-23T09:47:48;16.40;99.90
15815;DHT22;8008;50.024;8.172;2023-04-23T09:50:17;16.40;99.90
15815;DHT22;8008;50.024;8.172;2023-04-23T09:52:53;16.60;99.90
15815;DHT22;8008;50.024;8.172;2023-04-23T09:55:28;16.70;99.90
15815;DHT22;8008;50.024;8.172;2023-04-23T09:57:57;16.70;99.90
15815;DHT22;8008;50.024;8.172;2023-04-23T10:00:25;16.70;99.90
15815;DHT22;8008;50.024;8.172;2023-04-23T10:02:58;16.50;99.90
15815;DHT22;8008;50.024;8.172;2023-04-23T10:05:27;16.50;99.90
15815;DHT22;8008;50.024;8.172;2023-04-23T10:08:11;16.60;99.90
15815;DHT22;8008;50.024;8.172;2023-04-23T10:10:43;16.80;99.90
15815;DHT22;8008;50.024;8.172;2023-04-23T10:13:32;17.10;99.90
15815;DHT22;8008;50.024;8.172;2023-04-23T10:16:02;17.10;99.90
15815;DHT22;8008;50.024;8.172;2023-04-23T10:18:48;17.20;99.90
15815;DHT22;8008;50.024;8.172;2023-04-23T10:21:17;17.40;99.90
15815;DHT22;8008;50.024;8.172;2023-04-23T10:23:46;17.40;99.90
15815;DHT22;8008;50.024;8.172;2023-04-23T10:26:19;17.40;99.90
15815;DHT22;8008;50.024;8.172;2023-04-23T10:28:49;17.40;99.90
15815;DHT22;8008;50.024;8.172;2023-04-23T10:31:20;17.30;99.90
15815;DHT22;8008;50.024;8.172;2023-04-23T10:33:49;17.30;99.90
15815;DHT22;8008;50.024;8.172;2023-04-23T10:36:25;17.50;99.90
15815;DHT22;8008;50.024;8.172;2023-04-23T10:38:54;17.70;99.90
15815;DHT22;8008;50.024;8.172;2023-04-23T10:41:35;17.80;99.90
15815;DHT22;8008;50.024;8.172;2023-04-23T10:44:03;18.20;99.90
15815;DHT22;8008;50.024;8.172;2023-04-23T10:46:33;18.30;99.90
15815;DHT22;8008;50.024;8.172;2023-04-23T10:49:06;18.40;99.90
15815;DHT22;8008;50.024;8.172;2023-04-23T10:51:35;18.60;99.90
15815;DHT22;8008;50.024;8.172;2023-04-23T10:54:06;18.50;99.90
15815;DHT22;8008;50.024;8.172;2023-04-23T10:56:38;18.30;99.90
15815;DHT22;8008;50.024;8.172;2023-04-23T10:59:07;18.30;99.90
15815;DHT22;8008;50.024;8.172;2023-04-23T11:01:35;18.30;99.90
15815;DHT22;8008;50.024;8.172;2023-04-23T11:04:19;18.60;99.90
15815;DHT22;8008;50.024;8.172;2023-04-23T11:06:56;18.80;99.90
15815;DHT22;8008;50.024;8.172;2023-04-23T11:09:29;18.70;99.40
15815;DHT22;8008;50.024;8.172;2023-04-23T11:11:58;18.90;99.70
15815;DHT22;8008;50.024;8.172;2023-04-23T11:14:45;19.10;99.90
15815;DHT22;8008;50.024;8.172;2023-04-23T11:17:14;19.30;99.90
15815;DHT22;8008;50.024;8.172;2023-04-23T11:20:07;19.30;99.90
15815;DHT22;8008;50.024;8.172;2023-04-23T11:22:37;19.20;97.90
15815;DHT22;8008;50.024;8.172;2023-04-23T11:25:08;18.90;97.10
15815;DHT22;8008;50.024;8.172;2023-04-23T11:27:42;18.70;97.00
15815;DHT22;8008;50.024;8.172;2023-04-23T11:30:12;18.60;96.80
15815;DHT22;8008;50.024;8.172;2023-04-23T11:32:42;18.40;95.80
15815;DHT22;8008;50.024;8.172;2023-04-23T11:35:12;18.20;95.90
15815;DHT22;8008;50.024;8.172;2023-04-23T11:37:41;18.00;95.90
15815;DHT22;8008;50.024;8.172;2023-04-23T11:40:11;18.00;96.40
15815;DHT22;8008;50.024;8.172;2023-04-23T11:42:45;18.20;96.90
15815;DHT22;8008;50.024;8.172;2023-04-23T11:45:18;18.30;96.00
15815;DHT22;8008;50.024;8.172;2023-04-23T11:47:48;18.70;95.30
15815;DHT22;8008;50.024;8.172;2023-04-23T11:50:17;19.00;95.30
15815;DHT22;8008;50.024;8.172;2023-04-23T11:52:46;19.20;94.00
15815;DHT22;8008;50.024;8.172;2023-04-23T11:55:14;19.50;93.70
15815;DHT22;8008;50.024;8.172;2023-04-23T11:57:45;20.00;94.00
15815;DHT22;8008;50.024;8.172;2023-04-23T12:00:15;20.20;92.40
15815;DHT22;8008;50.024;8.172;2023-04-23T12:02:51;19.70;91.80
15815;DHT22;8008;50.024;8.172;2023-04-23T12:05:20;20.20;92.00
15815;DHT22;8008;50.024;8.172;2023-04-23T12:07:51;20.00;91.90
15815;DHT22;8008;50.024;8.172;2023-04-23T12:10:19;19.70;91.90
15815;DHT22;8008;50.024;8.172;2023-04-23T12:12:50;20.00;91.90
15815;DHT22;8008;50.024;8.172;2023-04-23T12:15:19;19.40;91.60
15815;DHT22;8008;50.024;8.172;2023-04-23T12:17:48;19.30;92.10
15815;DHT22;8008;50.024;8.172;2023-04-23T12:20:20;19.30;93.40
15815;DHT22;8008;50.024;8.172;2023-04-23T12:22:48;19.50;94.20
15815;DHT22;8008;50.024;8.172;2023-04-23T12:25:21;20.30;96.00
15815;DHT22;8008;50.024;8.172;2023-04-23T12:27:50;22.20;93.80
15815;DHT22;8008;50.024;8.172;2023-04-23T12:30:18;23.80;91.80
15815;DHT22;8008;50.024;8.172;2023-04-23T12:32:46;24.10;88.40
15815;DHT22;8008;50.024;8.172;2023-04-23T12:35:13;24.10;85.60
15815;DHT22;8008;50.024;8.172;2023-04-23T12:37:41;22.90;85.20
15815;DHT22;8008;50.024;8.172;2023-04-23T12:40:10;22.80;85.20
15815;DHT22;8008;50.024;8.172;2023-04-23T12:42:38;23.00;86.60
15815;DHT22;8008;50.024;8.172;2023-04-23T12:45:09;22.80;81.60
15815;DHT22;8008;50.024;8.172;2023-04-23T12:47:37;22.00;81.60
15815;DHT22;8008;50.024;8.172;2023-04-23T12:50:06;22.20;88.10
15815;DHT22;8008;50.024;8.172;2023-04-23T12:52:34;22.40;86.60
15815;DHT22;8008;50.024;8.172;2023-04-23T12:55:04;22.50;84.30
15815;DHT22;8008;50.024;8.172;2023-04-23T12:57:32;22.20;81.60
15815;DHT22;8008;50.024;8.172;2023-04-23T13:00:00;21.90;84.40
15815;DHT22;8008;50.024;8.172;2023-04-23T13:02:29;22.00;89.60
15815;DHT22;8008;50.024;8.172;2023-04-23T13:04:58;22.10;89.00
15815;DHT22;8008;50.024;8.172;2023-04-23T13:07:27;21.60;88.90
15815;DHT22;8008;50.024;8.172;2023-04-23T13:09:55;21.70;88.40
15815;DHT22;8008;50.024;8.172;2023-04-23T13:12:25;21.80;88.30
15815;DHT22;8008;50.024;8.172;2023-04-23T13:14:53;21.60;83.00
15815;DHT22;8008;50.024;8.172;2023-04-23T13:17:20;21.70;82.20
15815;DHT22;8008;50.024;8.172;2023-04-23T13:19:52;22.20;83.20
15815;DHT22;8008;50.024;8.172;2023-04-23T13:22:21;22.40;80.10
15815;DHT22;8008;50.024;8.172;2023-04-23T13:24:54;22.20;78.70
15815;DHT22;8008;50.024;8.172;2023-04-23T13:27:23;21.40;79.00
15815;DHT22;8008;50.024;8.172;2023-04-23T13:29:51;20.80;80.90
15815;DHT22;8008;50.024;8.172;2023-04-23T13:32:19;21.00;83.50
15815;DHT22;8008;50.024;8.172;2023-04-23T13:34:49;21.60;82.30
15815;DHT22;8008;50.024;8.172;2023-04-23T13:37:18;22.20;81.60
15815;DHT22;8008;50.024;8.172;2023-04-23T13:39:47;22.40;81.30
15815;DHT22;8008;50.024;8.172;2023-04-23T13:42:15;22.30;80.30
15815;DHT22;8008;50.024;8.172;2023-04-23T13:44:43;22.50;77.80
15815;DHT22;8008;50.024;8.172;2023-04-23T13:47:10;22.80;79.00
15815;DHT22;8008;50.024;8.172;2023-04-23T13:49:38;22.90;76.90
15815;DHT22;8008;50.024;8.172;2023-04-23T13:52:07;23.20;77.10
15815;DHT22;8008;50.024;8.172;2023-04-23T13:54:36;23.40;77.30
15815;DHT22;8008;50.024;8.172;2023-04-23T13:57:05;22.70;75.60
15815;DHT22;8008;50.024;8.172;2023-04-23T13:59:33;22.20;74.90
15815;DHT22;8008;50.024;8.172;2023-04-23T14:02:01;21.40;75.00
15815;DHT22;8008;50.024;8.172;2023-04-23T14:04:28;21.00;76.30
15815;DHT22;8008;50.024;8.172;2023-04-23T14:06:56;20.80;79.00
15815;DHT22;8008;50.024;8.172;2023-04-23T14:09:24;21.00;79.50
15815;DHT22;8008;50.024;8.172;2023-04-23T14:11:54;20.90;76.40
15815;DHT22;8008;50.024;8.172;2023-04-23T14:14:22;20.90;78.30
15815;DHT22;8008;50.024;8.172;2023-04-23T14:16:50;20.80;75.70
15815;DHT22;8008;50.024;8.172;2023-04-23T14:19:18;20.80;77.00
15815;DHT22;8008;50.024;8.172;2023-04-23T14:21:46;20.90;78.00
15815;DHT22;8008;50.024;8.172;2023-04-23T14:24:17;21.30;77.90
15815;DHT22;8008;50.024;8.172;2023-04-23T14:26:45;21.50;78.50
15815;DHT22;8008;50.024;8.172;2023-04-23T14:29:22;21.40;76.40
15815;DHT22;8008;50.024;8.172;2023-04-23T14:31:51;21.20;75.60
15815;DHT22;8008;50.024;8.172;2023-04-23T14:34:19;21.00;77.50
15815;DHT22;8008;50.024;8.172;2023-04-23T14:36:47;21.00;76.10
15815;DHT22;8008;50.024;8.172;2023-04-23T14:39:15;20.70;75.40
15815;DHT22;8008;50.024;8.172;2023-04-23T14:41:43;20.40;74.70
15815;DHT22;8008;50.024;8.172;2023-04-23T14:44:11;20.00;75.40
15815;DHT22;8008;50.024;8.172;2023-04-23T14:46:41;19.90;76.80
15815;DHT22;8008;50.024;8.172;2023-04-23T14:49:09;20.10;78.00
15815;DHT22;8008;50.024;8.172;2023-04-23T14:51:37;20.20;80.00
15815;DHT22;8008;50.024;8.172;2023-04-23T14:54:05;20.20;76.70
15815;DHT22;8008;50.024;8.172;2023-04-23T14:56:33;20.40;78.10
15815;DHT22;8008;50.024;8.172;2023-04-23T14:59:01;20.40;77.40
15815;DHT22;8008;50.024;8.172;2023-04-23T15:01:29;20.30;79.20
15815;DHT22;8008;50.024;8.172;2023-04-23T15:03:58;20.30;78.70
15815;DHT22;8008;50.024;8.172;2023-04-23T15:06:26;20.30;79.80
15815;DHT22;8008;50.024;8.172;2023-04-23T15:08:54;20.20;77.50
15815;DHT22;8008;50.024;8.172;2023-04-23T15:11:22;20.10;78.50
15815;DHT22;8008;50.024;8.172;2023-04-23T15:13:55;20.10;79.00
15815;DHT22;8008;50.024;8.172;2023-04-23T15:16:25;20.00;79.60
15815;DHT22;8008;50.024;8.172;2023-04-23T15:19:15;20.00;80.70
15815;DHT22;8008;50.024;8.172;2023-04-23T15:21:44;20.00;80.60
15815;DHT22;8008;50.024;8.172;2023-04-23T15:24:13;20.00;81.20
15815;DHT22;8008;50.024;8.172;2023-04-23T15:26:42;20.10;79.30
15815;DHT22;8008;50.024;8.172;2023-04-23T15:29:11;20.20;81.60
15815;DHT22;8008;50.024;8.172;2023-04-23T15:31:39;20.20;82.00
15815;DHT22;8008;50.024;8.172;2023-04-23T15:34:08;20.20;80.90
15815;DHT22;8008;50.024;8.172;2023-04-23T15:36:39;20.20;81.70
15815;DHT22;8008;50.024;8.172;2023-04-23T15:39:07;20.00;79.50
15815;DHT22;8008;50.024;8.172;2023-04-23T15:41:35;19.80;78.30
15815;DHT22;8008;50.024;8.172;2023-04-23T15:44:08;19.60;81.20
15815;DHT22;8008;50.024;8.172;2023-04-23T15:46:37;19.40;85.40
15815;DHT22;8008;50.024;8.172;2023-04-23T15:49:05;19.50;88.60
15815;DHT22;8008;50.024;8.172;2023-04-23T15:51:34;19.40;85.80
15815;DHT22;8008;50.024;8.172;2023-04-23T15:54:03;19.10;85.00
15815;DHT22;8008;50.024;8.172;2023-04-23T15:56:34;19.00;86.40
15815;DHT22;8008;50.024;8.172;2023-04-23T15:59:02;18.80;86.50
15815;DHT22;8008;50.024;8.172;2023-04-23T16:01:30;18.40;90.40
15815;DHT22;8008;50.024;8.172;2023-04-23T16:03:58;17.80;93.80
15815;DHT22;8008;50.024;8.172;2023-04-23T16:06:37;17.30;95.90
15815;DHT22;8008;50.024;8.172;2023-04-23T16:09:06;16.70;99.20
15815;DHT22;8008;50.024;8.172;2023-04-23T16:11:34;16.20;99.90
15815;DHT22;8008;50.024;8.172;2023-04-23T16:14:03;15.50;99.90
15815;DHT22;8008;50.024;8.172;2023-04-23T16:16:31;15.00;99.90
15815;DHT22;8008;50.024;8.172;2023-04-23T16:18:59;14.60;99.90
15815;DHT22;8008;50.024;8.172;2023-04-23T16:21:28;14.40;99.90
15815;DHT22;8008;50.024;8.172;2023-04-23T16:23:56;14.40;99.90
15815;DHT22;8008;50.024;8.172;2023-04-23T16:26:26;14.40;99.90
15815;DHT22;8008;50.024;8.172;2023-04-23T16:28:55;14.50;99.90
15815;DHT22;8008;50.024;8.172;2023-04-23T16:31:43;14.60;99.90
15815;DHT22;8008;50.024;8.172;2023-04-23T16:34:11;14.80;99.90
15815;DHT22;8008;50.024;8.172;2023-04-23T16:36:38;14.90;99.90
15815;DHT22;8008;50.024;8.172;2023-04-23T16:39:06;15.00;99.90
15815;DHT22;8008;50.024;8.172;2023-04-23T16:41:36;15.00;99.90
15815;DHT22;8008;50.024;8.172;2023-04-23T16:44:04;15.10;99.90
15815;DHT22;8008;50.024;8.172;2023-04-23T16:46:32;15.10;99.90
15815;DHT22;8008;50.024;8.172;2023-04-23T16:49:00;15.10;99.90
15815;DHT22;8008;50.024;8.172;2023-04-23T16:51:28;15.20;99.90
15815;DHT22;8008;50.024;8.172;2023-04-23T16:53:56;15.20;99.90
15815;DHT22;8008;50.024;8.172;2023-04-23T16:56:24;15.40;99.90
15815;DHT22;8008;50.024;8.172;2023-04-23T16:58:53;15.40;99.90
15815;DHT22;8008;50.024;8.172;2023-04-23T17:01:21;15.40;99.90
15815;DHT22;8008;50.024;8.172;2023-04-23T17:03:49;15.50;99.90
15815;DHT22;8008;50.024;8.172;2023-04-23T17:06:23;15.50;99.90
15815;DHT22;8008;50.024;8.172;2023-04-23T17:08:52;15.50;99.90
15815;DHT22;8008;50.024;8.172;2023-04-23T17:11:20;15.40;99.90
15815;DHT22;8008;50.024;8.172;2023-04-23T17:13:49;15.40;99.90
15815;DHT22;8008;50.024;8.172;2023-04-23T17:16:18;15.40;99.90
15815;DHT22;8008;50.024;8.172;2023-04-23T17:18:46;15.30;99.90
15815;DHT22;8008;50.024;8.172;2023-04-23T17:21:14;15.20;99.90
15815;DHT22;8008;50.024;8.172;2023-04-23T17:23:42;15.20;99.90
15815;DHT22;8008;50.024;8.172;2023-04-23T17:26:09;15.30;99.90
15815;DHT22;8008;50.024;8.172;2023-04-23T17:28:37;15.20;99.90
15815;DHT22;8008;50.024;8.172;2023-04-23T17:31:06;15.30;99.90
15815;DHT22;8008;50.024;8.172;2023-04-23T17:33:35;15.30;99.90
15815;DHT22;8008;50.024;8.172;2023-04-23T17:36:04;15.30;99.90
15815;DHT22;8008;50.024;8.172;2023-04-23T17:38:32;15.30;99.90
15815;DHT22;8008;50.024;8.172;2023-04-23T17:41:00;15.40;99.90
15815;DHT22;8008;50.024;8.172;2023-04-23T17:43:28;15.40;99.90
15815;DHT22;8008;50.024;8.172;2023-04-23T17:46:00;15.40;99.90
15815;DHT22;8008;50.024;8.172;2023-04-23T17:48:29;15.40;99.90
15815;DHT22;8008;50.024;8.172;2023-04-23T17:50:58;15.40;99.90
15815;DHT22;8008;50.024;8.172;2023-04-23T17:53:26;15.30;99.90
15815;DHT22;8008;50.024;8.172;2023-04-23T17:55:54;15.20;99.90
15815;DHT22;8008;50.024;8.172;2023-04-23T17:58:25;15.20;99.90
15815;DHT22;8008;50.024;8.172;2023-04-23T18:00:54;15.20;99.90
15815;DHT22;8008;50.024;8.172;2023-04-23T18:03:22;15.20;99.90
15815;DHT22;8008;50.024;8.172;2023-04-23T18:05:51;15.20;99.90
15815;DHT22;8008;50.024;8.172;2023-04-23T18:08:20;15.20;99.90
15815;DHT22;8008;50.024;8.172;2023-04-23T18:10:48;15.20;99.90
15815;DHT22;8008;50.024;8.172;2023-04-23T18:13:16;15.10;99.90
15815;DHT22;8008;50.024;8.172;2023-04-23T18:15:44;15.00;99.90
15815;DHT22;8008;50.024;8.172;2023-04-23T18:18:15;15.00;99.90
15815;DHT22;8008;50.024;8.172;2023-04-23T18:20:43;15.00;99.90
15815;DHT22;8008;50.024;8.172;2023-04-23T18:23:11;15.00;99.90
15815;DHT22;8008;50.024;8.172;2023-04-23T18:25:41;15.00;99.90
15815;DHT22;8008;50.024;8.172;2023-04-23T18:28:09;15.00;99.90
15815;DHT22;8008;50.024;8.172;2023-04-23T18:30:37;14.90;99.90
15815;DHT22;8008;50.024;8.172;2023-04-23T18:33:15;14.90;99.90
15815;DHT22;8008;50.024;8.172;2023-04-23T18:35:54;15.00;99.90
15815;DHT22;8008;50.024;8.172;2023-04-23T18:38:29;14.90;99.90
15815;DHT22;8008;50.024;8.172;2023-04-23T18:40:59;14.90;99.90
15815;DHT22;8008;50.024;8.172;2023-04-23T18:43:30;14.90;99.90
15815;DHT22;8008;50.024;8.172;2023-04-23T18:45:59;14.90;99.90
15815;DHT22;8008;50.024;8.172;2023-04-23T18:48:38;14.80;99.90
15815;DHT22;8008;50.024;8.172;2023-04-23T18:51:18;14.80;99.90
15815;DHT22;8008;50.024;8.172;2023-04-23T18:53:47;14.80;99.90
15815;DHT22;8008;50.024;8.172;2023-04-23T18:56:16;14.80;99.90
15815;DHT22;8008;50.024;8.172;2023-04-23T18:58:44;14.70;99.90
15815;DHT22;8008;50.024;8.172;2023-04-23T19:01:12;14.70;99.90